createdAt,value
2018-03-18T00:00:05.706Z,94933.81
2018-03-18T00:02:31.601Z,94930.30
2018-03-18T00:05:00.704Z,94935.70
2018-03-18T00:07:26.556Z,94928.53
2018-03-18T00:09:55.623Z,94930.55
2018-03-18T00:12:21.475Z,94931.33
2018-03-18T00:14:50.416Z,94936.39
2018-03-18T00:17:16.296Z,94937.73
2018-03-18T00:19:45.178Z,94943.05
2018-03-18T00:22:11.048Z,94946.77
2018-03-18T00:24:36.877Z,94944.44
2018-03-18T00:27:02.739Z,94948.47
2018-03-18T00:29:28.602Z,94936.93
2018-03-18T00:31:57.994Z,94940.13
2018-03-18T00:34:23.816Z,94946.45
2018-03-18T00:36:50.817Z,94940.14
2018-03-18T00:39:16.658Z,94943.08
2018-03-18T00:41:45.500Z,94933.14
2018-03-18T00:44:11.341Z,94932.52
2018-03-18T00:46:40.085Z,94942.72
2018-03-18T00:49:05.933Z,94941.97
2018-03-18T00:51:44.178Z,94925.95
2018-03-18T00:54:10.145Z,94933.41
2018-03-18T00:56:35.940Z,94937.25
2018-03-18T00:59:01.849Z,94935.50
2018-03-18T01:01:27.707Z,94930.90
2018-03-18T01:03:53.575Z,94932.48
2018-03-18T01:06:19.429Z,94934.15
2018-03-18T01:08:45.264Z,94929.30
2018-03-18T01:11:11.136Z,94932.30
2018-03-18T01:13:36.986Z,94930.42
2018-03-18T01:16:02.863Z,94928.73
2018-03-18T01:18:32.023Z,94925.36
2018-03-18T01:20:57.898Z,94921.56
2018-03-18T01:23:25.898Z,94914.95
2018-03-18T01:25:51.746Z,94914.47
2018-03-18T01:28:21.115Z,94911.53
2018-03-18T01:30:46.989Z,94911.65
2018-03-18T01:33:15.979Z,94910.42
2018-03-18T01:35:41.819Z,94904.39
2018-03-18T01:38:07.687Z,94905.83
2018-03-18T01:40:33.579Z,94907.00
2018-03-18T01:42:59.468Z,94909.06
2018-03-18T01:45:28.572Z,94900.55
2018-03-18T01:47:54.416Z,94896.66
2018-03-18T01:50:22.114Z,94897.24
2018-03-18T01:53:00.422Z,94894.91
2018-03-18T01:55:26.262Z,94896.97
2018-03-18T01:57:52.118Z,94899.78
2018-03-18T02:00:18.034Z,94894.80
2018-03-18T02:02:43.862Z,94876.33
2018-03-18T02:05:09.733Z,94892.30
2018-03-18T02:07:35.591Z,94891.05
2018-03-18T02:10:01.458Z,94887.87
2018-03-18T02:12:27.304Z,94888.38
2018-03-18T02:14:53.157Z,94891.72
2018-03-18T02:17:19.160Z,94888.70
2018-03-18T02:19:45.029Z,94892.90
2018-03-18T02:22:12.198Z,94884.55
2018-03-18T02:24:38.063Z,94881.31
2018-03-18T02:27:06.914Z,94881.31
2018-03-18T02:29:32.758Z,94883.67
2018-03-18T02:32:01.577Z,94885.47
2018-03-18T02:34:27.463Z,94879.45
2018-03-18T02:36:56.453Z,94880.20
2018-03-18T02:39:22.300Z,94880.53
2018-03-18T02:41:52.114Z,94878.07
2018-03-18T02:44:17.999Z,94880.98
2018-03-18T02:46:46.901Z,94875.56
2018-03-18T02:49:12.761Z,94878.75
2018-03-18T02:51:38.671Z,94877.23
2018-03-18T02:54:04.532Z,94875.80
2018-03-18T02:56:30.390Z,94880.63
2018-03-18T02:58:57.841Z,94875.89
2018-03-18T03:01:23.702Z,94878.22
2018-03-18T03:03:52.697Z,94876.17
2018-03-18T03:06:18.627Z,94874.75
2018-03-18T03:08:47.503Z,94881.68
2018-03-18T03:11:13.370Z,94877.56
2018-03-18T03:13:42.631Z,94879.48
2018-03-18T03:16:08.477Z,94876.78
2018-03-18T03:18:37.469Z,94877.52
2018-03-18T03:21:03.357Z,94877.20
2018-03-18T03:23:32.529Z,94883.16
2018-03-18T03:25:58.414Z,94878.49
2018-03-18T03:28:24.257Z,94880.88
2018-03-18T03:30:50.122Z,94883.30
2018-03-18T03:33:15.977Z,94884.26
2018-03-18T03:35:42.825Z,94858.70
2018-03-18T03:38:08.683Z,94882.61
2018-03-18T03:40:37.488Z,94887.24
2018-03-18T03:43:03.378Z,94889.56
2018-03-18T03:45:32.219Z,94897.19
2018-03-18T03:47:58.088Z,94889.90
2018-03-18T03:50:26.726Z,94891.63
2018-03-18T03:55:33.487Z,94896.27
2018-03-18T03:57:59.359Z,94894.21
2018-03-18T04:00:25.194Z,94897.44
2018-03-18T04:02:51.063Z,94890.91
2018-03-18T04:05:16.918Z,94889.31
2018-03-18T04:07:42.790Z,94896.28
2018-03-18T04:10:08.640Z,94897.09
2018-03-18T04:12:34.499Z,94898.84
2018-03-18T04:15:00.388Z,94897.05
2018-03-18T04:17:26.216Z,94899.80
2018-03-18T04:19:52.076Z,94900.85
2018-03-18T04:22:17.909Z,94904.85
2018-03-18T04:24:43.770Z,94899.17
2018-03-18T04:27:12.804Z,94900.17
2018-03-18T04:29:38.656Z,94906.41
2018-03-18T04:32:07.545Z,94909.17
2018-03-18T04:34:33.432Z,94905.02
2018-03-18T04:37:02.521Z,94905.17
2018-03-18T04:39:28.368Z,94902.63
2018-03-18T04:41:54.227Z,94893.45
2018-03-18T04:44:20.057Z,94903.07
2018-03-18T04:46:45.927Z,94901.74
2018-03-18T04:49:13.320Z,94901.33
2018-03-18T04:51:39.169Z,94903.11
2018-03-18T04:54:07.862Z,94897.54
2018-03-18T04:56:33.724Z,94902.52
2018-03-18T04:59:02.566Z,94900.03
2018-03-18T05:01:28.434Z,94903.94
2018-03-18T05:03:57.106Z,94903.14
2018-03-18T05:06:22.978Z,94911.09
2018-03-18T05:11:19.783Z,94905.01
2018-03-18T05:13:47.131Z,94906.01
2018-03-18T05:16:12.999Z,94907.84
2018-03-18T05:18:38.838Z,94914.94
2018-03-18T05:21:04.703Z,94910.91
2018-03-18T05:23:30.603Z,94907.04
2018-03-18T05:25:59.527Z,94908.28
2018-03-18T05:28:25.390Z,94909.76
2018-03-18T05:30:54.995Z,94914.55
2018-03-18T05:33:20.855Z,94918.03
2018-03-18T05:35:48.084Z,94924.87
2018-03-18T05:38:13.947Z,94926.28
2018-03-18T05:40:43.197Z,94929.97
2018-03-18T05:43:09.052Z,94939.71
2018-03-18T05:45:38.375Z,94935.73
2018-03-18T05:48:04.209Z,94944.20
2018-03-18T05:50:32.471Z,94944.61
2018-03-18T05:52:58.329Z,94944.28
2018-03-18T05:55:24.162Z,94933.52
2018-03-18T05:57:50.004Z,94946.95
2018-03-18T06:00:15.895Z,94955.69
2018-03-18T06:02:45.497Z,94952.61
2018-03-18T06:05:11.330Z,94952.19
2018-03-18T06:07:38.518Z,94950.44
2018-03-18T06:10:04.386Z,94946.83
2018-03-18T06:12:33.281Z,94953.06
2018-03-18T06:14:59.121Z,94956.79
2018-03-18T06:17:27.843Z,94956.55
2018-03-18T06:19:53.714Z,94956.10
2018-03-18T06:22:22.505Z,94962.70
2018-03-18T06:24:48.435Z,94959.53
2018-03-18T06:27:17.912Z,94967.47
2018-03-18T06:29:43.785Z,94975.17
2018-03-18T06:32:09.672Z,94974.73
2018-03-18T06:34:35.497Z,94971.04
2018-03-18T06:37:01.381Z,94974.99
2018-03-18T06:39:30.576Z,94981.36
2018-03-18T06:41:56.438Z,94975.73
2018-03-18T06:44:23.825Z,94977.78
2018-03-18T06:46:49.696Z,94979.63
2018-03-18T06:49:19.477Z,94981.97
2018-03-18T06:51:45.337Z,94983.41
2018-03-18T06:54:13.119Z,94990.67
2018-03-18T06:56:38.969Z,94996.38
2018-03-18T06:59:08.320Z,94995.75
2018-03-18T07:01:34.209Z,94993.72
2018-03-18T07:04:03.768Z,95004.06
2018-03-18T07:06:29.609Z,95009.95
2018-03-18T07:08:55.437Z,95011.30
2018-03-18T07:11:21.276Z,95009.97
2018-03-18T07:13:47.124Z,95018.69
2018-03-18T07:16:14.419Z,95015.58
2018-03-18T07:18:40.262Z,95021.78
2018-03-18T07:21:09.469Z,95022.98
2018-03-18T07:23:35.339Z,95028.47
2018-03-18T07:26:05.059Z,95027.39
2018-03-18T07:28:30.919Z,95037.19
2018-03-18T07:30:58.801Z,95033.86
2018-03-18T07:33:24.687Z,95043.30
2018-03-18T07:35:53.961Z,95047.63
2018-03-18T07:38:19.808Z,95048.30
2018-03-18T07:40:48.810Z,95046.87
2018-03-18T07:43:14.685Z,95050.33
2018-03-18T07:45:40.570Z,95036.69
2018-03-18T07:48:06.496Z,95049.16
2018-03-18T07:50:32.424Z,95047.13
2018-03-18T07:52:59.689Z,95055.95
2018-03-18T07:55:25.543Z,95056.68
2018-03-18T07:57:54.767Z,95061.44
2018-03-18T08:00:20.616Z,95055.48
2018-03-18T08:02:50.050Z,95058.31
2018-03-18T08:05:15.927Z,95066.09
2018-03-18T08:07:44.273Z,95065.08
2018-03-18T08:10:10.129Z,95066.72
2018-03-18T08:12:39.071Z,95074.50
2018-03-18T08:15:04.948Z,95077.72
2018-03-18T08:17:34.151Z,95079.80
2018-03-18T08:19:59.998Z,95078.44
2018-03-18T08:22:25.866Z,95080.43
2018-03-18T08:24:51.690Z,95084.81
2018-03-18T08:27:17.555Z,95081.30
2018-03-18T08:29:45.294Z,95058.97
2018-03-18T08:32:11.172Z,95084.47
2018-03-18T08:34:40.774Z,95083.99
2018-03-18T08:37:06.629Z,95090.97
2018-03-18T08:39:34.614Z,95088.74
2018-03-18T08:42:00.498Z,95093.30
2018-03-18T08:44:29.996Z,95090.92
2018-03-18T08:46:55.863Z,95097.11
2018-03-18T08:49:23.949Z,95093.59
2018-03-18T08:51:49.835Z,95093.05
2018-03-18T08:54:18.586Z,95092.26
2018-03-18T08:56:44.457Z,95102.42
2018-03-18T08:59:10.318Z,95097.00
2018-03-18T09:01:36.156Z,95099.34
2018-03-18T09:04:02.017Z,95096.30
2018-03-18T09:06:31.141Z,95098.42
2018-03-18T09:08:57.010Z,95110.66
2018-03-18T09:11:26.559Z,95100.41
2018-03-18T09:13:52.427Z,95105.70
2018-03-18T09:16:19.767Z,95107.68
2018-03-18T09:18:45.654Z,95109.95
2018-03-18T09:21:14.575Z,95107.52
2018-03-18T09:23:40.428Z,95102.63
2018-03-18T09:26:09.131Z,95104.00
2018-03-18T09:28:34.971Z,95098.65
2018-03-18T09:31:03.710Z,95097.65
2018-03-18T09:33:29.601Z,95098.63
2018-03-18T09:35:55.471Z,95104.06
2018-03-18T09:38:21.346Z,95111.11
2018-03-18T09:40:47.214Z,95110.05
2018-03-18T09:43:16.977Z,95107.61
2018-03-18T09:45:42.868Z,95111.91
2018-03-18T09:48:10.335Z,95115.23
2018-03-18T09:50:36.223Z,95117.29
2018-03-18T09:55:30.962Z,95124.56
2018-03-18T09:57:59.677Z,95121.92
2018-03-18T10:00:25.512Z,95123.67
2018-03-18T10:02:54.737Z,95132.27
2018-03-18T10:05:20.613Z,95128.53
2018-03-18T10:07:49.825Z,95125.48
2018-03-18T10:10:15.695Z,95118.13
2018-03-18T10:12:41.533Z,95119.55
2018-03-18T10:15:07.397Z,95118.16
2018-03-18T10:17:33.263Z,95120.25
2018-03-18T10:20:00.826Z,95122.13
2018-03-18T10:22:26.670Z,95118.05
2018-03-18T10:24:55.530Z,95121.56
2018-03-18T10:27:21.402Z,95127.45
2018-03-18T10:29:50.571Z,95119.30
2018-03-18T10:32:16.452Z,95123.69
2018-03-18T10:34:45.905Z,95125.64
2018-03-18T10:37:11.767Z,95129.34
2018-03-18T10:39:41.326Z,95121.82
2018-03-18T10:42:07.225Z,95125.05
2018-03-18T10:44:34.496Z,95127.73
2018-03-18T10:47:00.366Z,95124.45
2018-03-18T10:49:26.197Z,95117.53
2018-03-18T10:51:52.080Z,95124.48
2018-03-18T10:54:17.934Z,95130.09
2018-03-18T10:56:46.908Z,95130.46
2018-03-18T10:59:12.761Z,95136.08
2018-03-18T11:01:48.069Z,95132.54
2018-03-18T11:04:16.922Z,95135.80
2018-03-18T11:06:42.804Z,95141.04
2018-03-18T11:09:08.670Z,95136.80
2018-03-18T11:11:34.541Z,95150.70
2018-03-18T11:14:00.439Z,95140.02
2018-03-18T11:16:26.296Z,95147.28
2018-03-18T11:18:52.170Z,95153.23
2018-03-18T11:21:21.349Z,95155.58
2018-03-18T11:23:47.280Z,95151.80
2018-03-18T11:26:13.158Z,95154.85
2018-03-18T11:28:39.055Z,95155.86
2018-03-18T11:31:04.947Z,95155.77
2018-03-18T11:33:31.754Z,95153.94
2018-03-18T11:35:57.605Z,95150.09
2018-03-18T11:38:26.315Z,95156.20
2018-03-18T11:40:52.183Z,95152.91
2018-03-18T11:43:21.495Z,95152.07
2018-03-18T11:45:47.352Z,95146.13
2018-03-18T11:48:16.803Z,95154.98
2018-03-18T11:50:42.646Z,95156.48
2018-03-18T11:53:10.303Z,95154.31
2018-03-18T11:55:36.194Z,95145.78
2018-03-18T11:58:05.165Z,95151.75
2018-03-18T12:00:31.036Z,95151.32
2018-03-18T12:02:56.921Z,95149.25
2018-03-18T12:05:22.883Z,95164.86
2018-03-18T12:07:48.741Z,95154.65
2018-03-18T12:10:18.527Z,95154.28
2018-03-18T12:12:44.401Z,95151.05
2018-03-18T12:15:11.802Z,95152.72
2018-03-18T12:17:37.678Z,95150.02
2018-03-18T12:20:06.635Z,95146.70
2018-03-18T12:22:32.516Z,95154.45
2018-03-18T12:25:01.505Z,95153.93
2018-03-18T12:27:27.375Z,95155.89
2018-03-18T12:29:56.436Z,95158.41
2018-03-18T12:32:22.316Z,95158.97
2018-03-18T12:34:51.499Z,95157.64
2018-03-18T12:37:17.383Z,95147.79
2018-03-18T12:39:55.653Z,95151.41
2018-03-18T12:42:33.927Z,95163.45
2018-03-18T12:44:59.782Z,95156.05
2018-03-18T12:47:25.648Z,95159.44
2018-03-18T12:49:51.484Z,95166.27
2018-03-18T12:52:17.344Z,95168.62
2018-03-18T12:54:43.273Z,95167.14
2018-03-18T12:57:09.072Z,95171.50
2018-03-18T12:59:34.974Z,95171.37
2018-03-18T13:02:00.840Z,95169.08
2018-03-18T13:04:26.694Z,95172.81
2018-03-18T13:06:52.556Z,95170.61
2018-03-18T13:09:18.411Z,95173.08
2018-03-18T13:11:44.298Z,95168.75
2018-03-18T13:14:10.150Z,95169.63
2018-03-18T13:16:35.978Z,95162.84
2018-03-18T13:19:01.855Z,95163.56
2018-03-18T13:21:28.724Z,95171.61
2018-03-18T13:23:54.618Z,95172.52
2018-03-18T13:26:20.467Z,95168.27
2018-03-18T13:28:46.334Z,95167.22
2018-03-18T13:31:12.171Z,95171.20
2018-03-18T13:33:38.061Z,95168.77
2018-03-18T13:36:03.938Z,95165.34
2018-03-18T13:38:31.545Z,95169.79
2018-03-18T13:40:57.450Z,95178.17
2018-03-18T13:43:26.139Z,95175.98
2018-03-18T13:45:52.024Z,95172.58
2018-03-18T13:48:20.877Z,95183.73
2018-03-18T13:50:46.747Z,95172.75
2018-03-18T13:53:12.632Z,95195.16
2018-03-18T13:55:38.560Z,95186.42
2018-03-18T13:58:04.420Z,95191.44
2018-03-18T14:00:34.108Z,95199.48
2018-03-18T14:02:59.962Z,95211.46
2018-03-18T14:05:27.437Z,95209.52
2018-03-18T14:07:53.286Z,95203.11
2018-03-18T14:10:22.150Z,95199.44
2018-03-18T14:12:48.016Z,95197.00
2018-03-18T14:15:16.997Z,95203.28
2018-03-18T14:17:42.876Z,95204.03
2018-03-18T14:20:11.811Z,95206.08
2018-03-18T14:22:37.653Z,95206.34
2018-03-18T14:25:06.978Z,95174.82
2018-03-18T14:27:32.879Z,95211.73
2018-03-18T14:29:58.754Z,95217.95
2018-03-18T14:32:24.603Z,95216.70
2018-03-18T14:34:50.466Z,95221.06
2018-03-18T14:37:18.100Z,95225.22
2018-03-18T14:39:43.986Z,95227.17
2018-03-18T14:42:13.283Z,95229.59
2018-03-18T14:44:39.155Z,95223.38
2018-03-18T14:47:08.205Z,95229.28
2018-03-18T14:49:34.058Z,95238.22
2018-03-18T14:52:03.188Z,95238.33
2018-03-18T14:54:29.028Z,95244.52
2018-03-18T14:56:58.358Z,95243.56
2018-03-18T14:59:24.232Z,95247.62
2018-03-18T15:01:53.164Z,95254.81
2018-03-18T15:04:19.053Z,95257.80
2018-03-18T15:06:44.922Z,95251.60
2018-03-18T15:09:10.772Z,95262.05
2018-03-18T15:11:36.613Z,95264.81
2018-03-18T15:14:03.514Z,95264.55
2018-03-18T15:16:29.361Z,95268.72
2018-03-18T15:18:58.712Z,95271.45
2018-03-18T15:21:24.617Z,95273.09
2018-03-18T15:23:53.697Z,95280.38
2018-03-18T15:26:19.546Z,95281.43
2018-03-18T15:28:48.962Z,95285.83
2018-03-18T15:31:14.856Z,95282.42
2018-03-18T15:33:42.304Z,95290.95
2018-03-18T15:36:08.147Z,95284.89
2018-03-18T15:38:37.520Z,95291.03
2018-03-18T15:41:03.397Z,95299.58
2018-03-18T15:43:29.275Z,95301.26
2018-03-18T15:45:55.200Z,95302.66
2018-03-18T15:48:21.107Z,95306.28
2018-03-18T15:50:48.361Z,95308.63
2018-03-18T15:53:14.210Z,95301.84
2018-03-18T15:55:42.907Z,95312.73
2018-03-18T15:58:08.773Z,95312.67
2018-03-18T16:00:37.370Z,95304.20
2018-03-18T16:03:03.251Z,95310.61
2018-03-18T16:05:31.227Z,95317.64
2018-03-18T16:07:57.069Z,95315.25
2018-03-18T16:10:22.949Z,95317.26
2018-03-18T16:12:49.414Z,95327.50
2018-03-18T16:15:15.260Z,95319.08
2018-03-18T16:17:44.017Z,95326.60
2018-03-18T16:20:09.841Z,95328.13
2018-03-18T16:22:38.546Z,95328.47
2018-03-18T16:25:04.422Z,95328.02
2018-03-18T16:30:13.507Z,95335.69
2018-03-18T16:32:39.374Z,95326.93
2018-03-18T16:35:05.221Z,95345.04
2018-03-18T16:37:31.092Z,95350.42
2018-03-18T16:39:56.982Z,95352.14
2018-03-18T16:42:22.858Z,95354.67
2018-03-18T16:44:48.743Z,95354.89
2018-03-18T16:47:14.588Z,95359.64
2018-03-18T16:49:40.408Z,95373.08
2018-03-18T16:52:07.495Z,95366.98
2018-03-18T16:54:33.354Z,95375.22
2018-03-18T16:56:59.167Z,95380.27
2018-03-18T16:59:25.067Z,95382.86
2018-03-18T17:01:50.897Z,95384.47
2018-03-18T17:04:20.241Z,95380.11
2018-03-18T17:06:46.097Z,95382.84
2018-03-18T17:09:15.233Z,95389.80
2018-03-18T17:11:41.082Z,95393.27
2018-03-18T17:14:10.213Z,95399.53
2018-03-18T17:16:36.031Z,95399.86
2018-03-18T17:19:03.099Z,95405.31
2018-03-18T17:21:28.958Z,95405.53
2018-03-18T17:23:57.773Z,95410.31
2018-03-18T17:26:23.626Z,95409.91
2018-03-18T17:28:52.921Z,95415.35
2018-03-18T17:31:18.753Z,95423.70
2018-03-18T17:33:44.618Z,95431.43
2018-03-18T17:36:10.477Z,95435.30
2018-03-18T17:38:36.347Z,95435.53
2018-03-18T17:41:05.519Z,95442.55
2018-03-18T17:43:31.416Z,95447.28
2018-03-18T17:46:13.180Z,95447.98
2018-03-18T17:48:51.544Z,95445.44
2018-03-18T17:51:29.915Z,95451.03
2018-03-18T17:56:55.848Z,95457.89
2018-03-18T17:59:21.735Z,95461.02
2018-03-18T18:01:47.654Z,95462.75
2018-03-18T18:04:13.528Z,95469.19
2018-03-18T18:06:39.445Z,95471.09
2018-03-18T18:09:05.348Z,95467.40
2018-03-18T18:11:31.253Z,95472.27
2018-03-18T18:13:57.196Z,95480.47
2018-03-18T18:16:23.098Z,95479.72
2018-03-18T18:18:48.994Z,95486.14
2018-03-18T18:21:14.870Z,95482.27
2018-03-18T18:23:40.758Z,95487.24
2018-03-18T18:26:06.680Z,95485.58
2018-03-18T18:28:32.607Z,95491.25
2018-03-18T18:30:58.525Z,95493.26
2018-03-18T18:33:24.454Z,95499.92
2018-03-18T18:35:50.366Z,95498.39
2018-03-18T18:38:16.225Z,95501.20
2018-03-18T18:40:42.110Z,95496.02
2018-03-18T18:43:08.006Z,95498.64
2018-03-18T18:45:33.902Z,95489.87
2018-03-18T18:47:59.782Z,95499.58
2018-03-18T18:50:25.720Z,95505.03
2018-03-18T18:52:51.614Z,95506.22
2018-03-18T18:55:17.529Z,95510.05
2018-03-18T18:57:43.501Z,95503.93
2018-03-18T19:00:09.448Z,95509.81
2018-03-18T19:02:35.372Z,95503.98
2018-03-18T19:05:01.282Z,95508.53
2018-03-18T19:07:27.185Z,95512.37
2018-03-18T19:09:53.086Z,95508.30
2018-03-18T19:12:19.023Z,95513.64
2018-03-18T19:14:45.491Z,95516.82
2018-03-18T19:17:11.397Z,95516.36
2018-03-18T19:19:39.014Z,95513.30
2018-03-18T19:22:05.806Z,95518.91
2018-03-18T19:24:35.283Z,95523.13
2018-03-18T19:27:01.186Z,95522.89
2018-03-18T19:29:27.099Z,95528.59
2018-03-18T19:31:53.017Z,95528.42
2018-03-18T19:34:18.888Z,95531.36
2018-03-18T19:36:45.838Z,95522.68
2018-03-18T19:39:11.774Z,95530.39
2018-03-18T19:41:41.212Z,95522.90
2018-03-18T19:44:07.130Z,95533.38
2018-03-18T19:46:36.315Z,95530.00
2018-03-18T19:49:02.235Z,95523.36
2018-03-18T19:51:29.529Z,95531.41
2018-03-18T19:53:55.465Z,95527.63
2018-03-18T19:56:24.422Z,95534.39
2018-03-18T19:58:50.351Z,95532.69
2018-03-18T20:01:20.214Z,95535.20
2018-03-18T20:03:48.511Z,95535.53
2018-03-18T20:06:14.409Z,95536.39
2018-03-18T20:08:40.319Z,95542.69
2018-03-18T20:11:06.247Z,95541.54
2018-03-18T20:13:32.793Z,95540.02
2018-03-18T20:15:58.660Z,95540.56
2018-03-18T20:18:26.118Z,95541.13
2018-03-18T20:20:52.071Z,95542.40
2018-03-18T20:23:22.144Z,95542.56
2018-03-18T20:25:48.074Z,95541.92
2018-03-18T20:28:14.919Z,95543.76
2018-03-18T20:30:40.808Z,95539.97
2018-03-18T20:33:11.437Z,95543.72
2018-03-18T20:35:37.333Z,95545.03
2018-03-18T20:38:05.023Z,95548.61
2018-03-18T20:40:30.931Z,95546.19
2018-03-18T20:42:56.869Z,95546.31
2018-03-18T20:45:22.759Z,95543.50
2018-03-18T20:47:48.696Z,95552.52
2018-03-18T20:50:16.065Z,95554.86
2018-03-18T20:52:41.997Z,95557.75
2018-03-18T20:55:11.872Z,95560.38
2018-03-18T20:57:37.779Z,95564.84
2018-03-18T21:00:06.924Z,95564.48
2018-03-18T21:02:32.872Z,95558.45
2018-03-18T21:05:02.000Z,95566.79
2018-03-18T21:07:27.912Z,95566.06
2018-03-18T21:09:55.151Z,95568.22
2018-03-18T21:12:21.055Z,95562.44
2018-03-18T21:14:50.922Z,95561.38
2018-03-18T21:17:16.842Z,95565.94
2018-03-18T21:19:42.754Z,95563.39
2018-03-18T21:22:08.656Z,95557.72
2018-03-18T21:24:34.694Z,95564.28
2018-03-18T21:27:02.014Z,95561.67
2018-03-18T21:29:31.404Z,95561.12
2018-03-18T21:31:57.554Z,95563.47
2018-03-18T21:34:35.878Z,95558.56
2018-03-18T21:37:01.812Z,95565.74
2018-03-18T21:39:27.767Z,95565.67
2018-03-18T21:41:53.729Z,95563.16
2018-03-18T21:44:19.589Z,95561.16
2018-03-18T21:46:45.572Z,95564.86
2018-03-18T21:49:12.359Z,95562.30
2018-03-18T21:51:38.407Z,95572.39
2018-03-18T21:54:04.288Z,95572.70
2018-03-18T21:56:30.242Z,95571.08
2018-03-18T21:58:56.133Z,95576.28
2018-03-18T22:01:22.177Z,95570.44
2018-03-18T22:03:48.151Z,95579.03
2018-03-18T22:06:14.048Z,95571.17
2018-03-18T22:08:41.478Z,95573.30
2018-03-18T22:11:07.582Z,95573.08
2018-03-18T22:13:36.490Z,95574.17
2018-03-18T22:16:02.476Z,95576.03
2018-03-18T22:18:31.740Z,95576.97
2018-03-18T22:20:57.683Z,95576.42
2018-03-18T22:23:26.771Z,95573.74
2018-03-18T22:25:52.708Z,95571.30
2018-03-18T22:28:20.733Z,95578.23
2018-03-18T22:30:46.673Z,95574.72
2018-03-18T22:33:12.618Z,95574.72
2018-03-18T22:35:38.524Z,95577.86
2018-03-18T22:38:04.410Z,95575.61
2018-03-18T22:40:32.129Z,95571.45
2018-03-18T22:42:58.057Z,95579.23
2018-03-18T22:45:26.890Z,95410.03
2018-03-18T22:47:52.799Z,95582.33
2018-03-18T22:50:21.573Z,95580.29
2018-03-18T22:52:47.487Z,95575.06
2018-03-18T22:55:17.810Z,95577.92
2018-03-18T22:57:43.723Z,95574.86
2018-03-18T23:00:11.649Z,95577.84
2018-03-18T23:02:37.555Z,95583.92
2018-03-18T23:05:06.814Z,95577.06
2018-03-18T23:07:32.699Z,95584.39
2018-03-18T23:09:58.622Z,95584.77
2018-03-18T23:12:24.516Z,95581.56
2018-03-18T23:14:50.453Z,95583.35
2018-03-18T23:17:17.358Z,95577.28
2018-03-18T23:19:43.244Z,95589.45
2018-03-18T23:22:12.757Z,95588.09
2018-03-18T23:24:38.658Z,95578.41
2018-03-18T23:27:08.076Z,95586.94
2018-03-18T23:29:34.014Z,95585.50
2018-03-18T23:32:03.002Z,95582.44
2018-03-18T23:34:28.905Z,95586.55
2018-03-18T23:37:00.736Z,95586.13
2018-03-18T23:39:26.634Z,95589.16
2018-03-18T23:41:52.629Z,95589.98
2018-03-18T23:44:18.524Z,95585.56
2018-03-18T23:46:44.450Z,95594.70
2018-03-18T23:49:10.358Z,95595.75
2018-03-18T23:51:36.225Z,95593.84
2018-03-18T23:54:02.578Z,95587.14
2018-03-18T23:56:28.468Z,95595.73
2018-03-18T23:58:57.995Z,95590.66
